Time;durP1;ratioP1;P1;durP2;ratioP2;P2;SDS_P1;SDS_P2;PMS_P1;PMS_P2;Temp;Humidity;BMP_temperature;BMP_pressure;BME280_temperature;BME280_humidity;BME280_pressure;Samples;Min_cycle;Max_cycle;Signal;HPM_P1;HPM_P2
2022/11/30 00:02:06;;;;;;;;;;;7.10;99.90;;;;;;1829465;77;20373;-75
2022/11/30 00:04:33;;;;;;;;;;;7.10;99.90;;;;;;1833027;77;20188;-76
2022/11/30 00:07:00;;;;;;;;;;;7.10;99.90;;;;;;1833586;78;20315;-75
2022/11/30 00:09:26;;;;;;;;;;;7.10;99.90;;;;;;1839936;78;20119;-75
2022/11/30 00:11:53;;;;;;;;;;;7.00;99.90;;;;;;1839584;77;20366;-77
2022/11/30 00:14:20;;;;;;;;;;;7.00;99.90;;;;;;1836355;77;20156;-76
2022/11/30 00:16:46;;;;;;;;;;;7.00;99.90;;;;;;1845806;77;20330;-76
2022/11/30 00:19:13;;;;;;;;;;;6.90;99.90;;;;;;1836299;77;20168;-75
2022/11/30 00:21:40;;;;;;;;;;;6.90;99.90;;;;;;1847293;77;20311;-75
2022/11/30 00:24:07;;;;;;;;;;;6.90;99.90;;;;;;1838169;77;20114;-75
2022/11/30 00:26:33;;;;;;;;;;;6.80;99.90;;;;;;1850143;77;20168;-75
2022/11/30 00:29:00;;;;;;;;;;;6.80;99.90;;;;;;1846693;77;20364;-74
2022/11/30 00:31:27;;;;;;;;;;;6.80;99.90;;;;;;1854147;77;20280;-75
2022/11/30 00:33:53;;;;;;;;;;;6.90;99.90;;;;;;1833048;77;20356;-75
2022/11/30 00:36:21;;;;;;;;;;;7.00;99.90;;;;;;1840244;77;20293;-75
2022/11/30 00:38:48;;;;;;;;;;;7.10;99.90;;;;;;1837949;77;20122;-75
2022/11/30 00:41:15;;;;;;;;;;;7.10;99.90;;;;;;1837271;77;20122;-75
2022/11/30 00:43:41;;;;;;;;;;;7.10;99.90;;;;;;1833266;77;20165;-74
2022/11/30 00:46:08;;;;;;;;;;;7.10;99.90;;;;;;1835310;77;20188;-75
2022/11/30 00:48:35;;;;;;;;;;;7.00;99.90;;;;;;1839903;77;20119;-75
2022/11/30 00:51:02;;;;;;;;;;;7.00;99.90;;;;;;1837971;77;20338;-74
2022/11/30 00:53:28;;;;;;;;;;;6.90;99.90;;;;;;1834324;77;20153;-73
2022/11/30 00:55:55;;;;;;;;;;;6.90;99.90;;;;;;1837904;77;20370;-74
2022/11/30 00:58:22;;;;;;;;;;;7.00;99.90;;;;;;1839868;77;20226;-75
2022/11/30 01:00:48;;;;;;;;;;;7.00;99.90;;;;;;1830473;77;20379;-74
2022/11/30 01:03:15;;;;;;;;;;;6.90;99.90;;;;;;1855946;77;20122;-75
2022/11/30 01:05:45;;;;;;;;;;;6.80;99.90;;;;;;1855388;77;20349;-73
2022/11/30 01:08:12;;;;;;;;;;;6.90;99.90;;;;;;1841055;77;20192;-74
2022/11/30 01:10:40;;;;;;;;;;;7.00;99.90;;;;;;1839207;77;20126;-74
2022/11/30 01:13:06;;;;;;;;;;;7.00;99.90;;;;;;1836065;77;20180;-74
2022/11/30 01:15:37;;;;;;;;;;;7.00;99.90;;;;;;1854836;77;20351;-74
2022/11/30 01:18:03;;;;;;;;;;;7.00;99.90;;;;;;1846395;77;20127;-74
2022/11/30 01:20:30;;;;;;;;;;;6.90;99.90;;;;;;1855030;77;20436;-74
2022/11/30 01:22:57;;;;;;;;;;;6.90;99.90;;;;;;1845062;77;20172;-74
2022/11/30 01:25:24;;;;;;;;;;;7.00;99.90;;;;;;1859580;77;20226;-74
2022/11/30 01:27:50;;;;;;;;;;;7.00;99.90;;;;;;1838040;77;20162;-75
2022/11/30 01:30:17;;;;;;;;;;;7.00;99.90;;;;;;1839651;77;20134;-75
2022/11/30 01:32:44;;;;;;;;;;;7.00;99.90;;;;;;1835118;77;20157;-74
2022/11/30 01:35:10;;;;;;;;;;;7.00;99.90;;;;;;1829410;77;20193;-74
2022/11/30 01:37:37;;;;;;;;;;;7.00;99.90;;;;;;1849375;77;20215;-75
2022/11/30 01:40:04;;;;;;;;;;;7.00;99.90;;;;;;1829436;77;20234;-74
2022/11/30 01:42:31;;;;;;;;;;;7.00;99.90;;;;;;1838409;77;20174;-74
2022/11/30 01:44:59;;;;;;;;;;;7.10;99.90;;;;;;1839918;78;20185;-74
2022/11/30 01:47:27;;;;;;;;;;;6.90;99.90;;;;;;1835003;77;20192;-74
2022/11/30 01:49:55;;;;;;;;;;;7.00;99.90;;;;;;1839995;77;20185;-74
2022/11/30 01:52:24;;;;;;;;;;;7.00;99.90;;;;;;1839980;78;20148;-74
2022/11/30 01:54:54;;;;;;;;;;;7.00;99.90;;;;;;1838798;78;20162;-74
2022/11/30 01:57:22;;;;;;;;;;;7.00;99.90;;;;;;1839961;77;20174;-75
2022/11/30 01:59:49;;;;;;;;;;;7.00;99.90;;;;;;1839979;76;20123;-75
2022/11/30 02:02:16;;;;;;;;;;;6.90;99.90;;;;;;1836814;77;20130;-75
2022/11/30 02:04:43;;;;;;;;;;;6.80;99.90;;;;;;1835366;77;20122;-75
2022/11/30 02:07:09;;;;;;;;;;;6.90;99.90;;;;;;1852863;77;20208;-74
2022/11/30 02:09:38;;;;;;;;;;;6.90;99.90;;;;;;1829374;77;20122;-74
2022/11/30 02:12:05;;;;;;;;;;;6.90;99.90;;;;;;1844888;77;20138;-74
2022/11/30 02:14:36;;;;;;;;;;;6.90;99.90;;;;;;1846407;77;20205;-74
2022/11/30 02:17:04;;;;;;;;;;;6.90;99.90;;;;;;1831282;77;20121;-75
2022/11/30 02:19:35;;;;;;;;;;;7.00;99.90;;;;;;1843155;77;20181;-74
2022/11/30 02:22:13;;;;;;;;;;;6.80;99.90;;;;;;1840011;78;20131;-74
2022/11/30 02:24:42;;;;;;;;;;;6.90;99.90;;;;;;1836586;77;20119;-74
2022/11/30 02:27:26;;;;;;;;;;;6.90;99.90;;;;;;1844060;77;20119;-74
2022/11/30 02:29:55;;;;;;;;;;;6.90;99.90;;;;;;1840029;78;20115;-74
2022/11/30 02:32:23;;;;;;;;;;;6.90;99.90;;;;;;1839013;78;20175;-73
2022/11/30 02:34:50;;;;;;;;;;;7.00;99.90;;;;;;1835563;77;20114;-74
2022/11/30 02:37:17;;;;;;;;;;;6.90;99.90;;;;;;1831262;77;20124;-74
2022/11/30 02:39:44;;;;;;;;;;;6.90;99.90;;;;;;1834819;77;20161;-74
2022/11/30 02:42:11;;;;;;;;;;;6.90;99.90;;;;;;1847416;77;20149;-76
2022/11/30 02:44:39;;;;;;;;;;;6.90;99.90;;;;;;1829472;78;20118;-74
2022/11/30 02:47:10;;;;;;;;;;;6.90;99.90;;;;;;1841045;77;20338;-74
2022/11/30 02:49:39;;;;;;;;;;;6.90;99.90;;;;;;1845184;77;20127;-74
2022/11/30 02:52:06;;;;;;;;;;;7.00;99.90;;;;;;1839699;77;20146;-74
2022/11/30 02:54:33;;;;;;;;;;;7.00;99.90;;;;;;1840447;77;20368;-74
2022/11/30 02:56:59;;;;;;;;;;;6.90;99.90;;;;;;1842898;77;20203;-74
2022/11/30 02:59:26;;;;;;;;;;;7.00;99.90;;;;;;1847928;77;20130;-75
2022/11/30 03:01:53;;;;;;;;;;;7.00;99.90;;;;;;1833058;78;20119;-74
2022/11/30 03:04:19;;;;;;;;;;;7.00;99.90;;;;;;1839291;77;20118;-75
2022/11/30 03:06:46;;;;;;;;;;;7.00;99.90;;;;;;1832713;78;20123;-74
2022/11/30 03:09:13;;;;;;;;;;;7.00;99.90;;;;;;1839895;77;20122;-74
2022/11/30 03:11:39;;;;;;;;;;;7.00;99.90;;;;;;1835146;77;20126;-73
2022/11/30 03:14:06;;;;;;;;;;;7.00;99.90;;;;;;1828735;78;20122;-74
2022/11/30 03:16:33;;;;;;;;;;;6.90;99.90;;;;;;1845556;77;20118;-73
2022/11/30 03:19:00;;;;;;;;;;;6.80;99.90;;;;;;1843450;78;20104;-72
2022/11/30 03:21:26;;;;;;;;;;;6.70;99.90;;;;;;1838365;77;20412;-73
2022/11/30 03:23:53;;;;;;;;;;;6.60;99.90;;;;;;1842073;77;20114;-73
2022/11/30 03:26:20;;;;;;;;;;;6.60;99.90;;;;;;1830933;77;20373;-75
2022/11/30 03:28:46;;;;;;;;;;;6.60;99.90;;;;;;1839935;77;20123;-75
2022/11/30 03:31:13;;;;;;;;;;;6.60;99.90;;;;;;1838237;77;20375;-75
2022/11/30 03:33:40;;;;;;;;;;;6.70;99.90;;;;;;1836884;77;20115;-75
2022/11/30 03:36:08;;;;;;;;;;;6.70;99.90;;;;;;1841830;77;20389;-74
2022/11/30 03:38:34;;;;;;;;;;;6.70;99.90;;;;;;1839772;77;20130;-75
2022/11/30 03:41:09;;;;;;;;;;;6.70;99.90;;;;;;1837859;77;20204;-75
2022/11/30 03:43:35;;;;;;;;;;;6.70;99.90;;;;;;1839137;77;20185;-75
2022/11/30 03:46:02;;;;;;;;;;;6.70;99.90;;;;;;1838305;77;20130;-75
2022/11/30 03:48:30;;;;;;;;;;;6.70;99.90;;;;;;1829371;77;20315;-75
2022/11/30 03:50:57;;;;;;;;;;;6.70;99.90;;;;;;1838782;77;20397;-74
2022/11/30 03:53:24;;;;;;;;;;;6.90;99.90;;;;;;1840906;77;20129;-75
2022/11/30 03:55:54;;;;;;;;;;;7.00;99.90;;;;;;1849257;77;20127;-75
2022/11/30 03:58:21;;;;;;;;;;;7.00;99.90;;;;;;1839960;78;20111;-74
2022/11/30 04:00:48;;;;;;;;;;;6.90;99.90;;;;;;1838035;77;20177;-75
2022/11/30 04:03:14;;;;;;;;;;;6.90;99.90;;;;;;1840943;77;20380;-74
2022/11/30 04:05:41;;;;;;;;;;;6.90;99.90;;;;;;1852957;77;20149;-75
2022/11/30 04:08:08;;;;;;;;;;;6.90;99.90;;;;;;1836647;77;20126;-75
2022/11/30 04:10:35;;;;;;;;;;;6.90;99.90;;;;;;1844970;77;20129;-75
2022/11/30 04:13:01;;;;;;;;;;;6.80;99.90;;;;;;1838198;77;20204;-75
2022/11/30 04:15:28;;;;;;;;;;;6.80;99.90;;;;;;1837803;77;20118;-75
2022/11/30 04:17:55;;;;;;;;;;;6.90;99.90;;;;;;1839923;77;20326;-75
2022/11/30 04:20:21;;;;;;;;;;;6.90;99.90;;;;;;1839913;77;20209;-75
2022/11/30 04:22:48;;;;;;;;;;;7.00;99.90;;;;;;1837864;77;20364;-75
2022/11/30 04:25:15;;;;;;;;;;;6.80;99.90;;;;;;1834474;77;20126;-75
2022/11/30 04:27:43;;;;;;;;;;;6.80;99.90;;;;;;1844957;77;20400;-76
2022/11/30 04:30:10;;;;;;;;;;;6.80;99.90;;;;;;1842511;77;20122;-75
2022/11/30 04:32:37;;;;;;;;;;;6.90;99.90;;;;;;1832921;77;20117;-75
2022/11/30 04:35:04;;;;;;;;;;;7.00;99.90;;;;;;1838872;77;20125;-75
2022/11/30 04:37:32;;;;;;;;;;;7.00;99.90;;;;;;1846693;77;20127;-74
2022/11/30 04:39:59;;;;;;;;;;;7.00;99.90;;;;;;1846283;77;20338;-75
2022/11/30 04:42:25;;;;;;;;;;;6.90;99.90;;;;;;1836801;77;20165;-75
2022/11/30 04:44:52;;;;;;;;;;;6.80;99.90;;;;;;1841709;77;20170;-74
2022/11/30 04:47:19;;;;;;;;;;;6.80;99.90;;;;;;1837907;76;20237;-74
2022/11/30 04:49:45;;;;;;;;;;;7.00;99.90;;;;;;1854612;77;20118;-73
2022/11/30 04:52:12;;;;;;;;;;;7.00;99.90;;;;;;1840922;76;20223;-73
2022/11/30 04:54:39;;;;;;;;;;;7.00;99.90;;;;;;1839054;77;20335;-74
2022/11/30 04:57:05;;;;;;;;;;;7.00;99.90;;;;;;1840933;77;20154;-73
2022/11/30 04:59:32;;;;;;;;;;;6.90;99.90;;;;;;1846854;77;20424;-74
2022/11/30 05:01:59;;;;;;;;;;;6.90;99.90;;;;;;1835721;77;20126;-74
2022/11/30 05:04:25;;;;;;;;;;;6.90;99.90;;;;;;1832947;77;20189;-74
2022/11/30 05:06:52;;;;;;;;;;;6.80;99.90;;;;;;1836877;77;20170;-74
2022/11/30 05:09:19;;;;;;;;;;;6.80;99.90;;;;;;1833135;77;20130;-74
2022/11/30 05:11:47;;;;;;;;;;;6.90;99.90;;;;;;1834736;77;20150;-74
2022/11/30 05:14:14;;;;;;;;;;;6.90;99.90;;;;;;1840054;78;20123;-74
2022/11/30 05:16:40;;;;;;;;;;;6.80;99.90;;;;;;1840052;78;20330;-74
2022/11/30 05:19:07;;;;;;;;;;;6.90;99.90;;;;;;1838158;77;20122;-75
2022/11/30 05:21:34;;;;;;;;;;;6.80;99.90;;;;;;1850411;77;20345;-75
2022/11/30 05:24:01;;;;;;;;;;;6.80;99.90;;;;;;1837844;77;20199;-75
2022/11/30 05:26:27;;;;;;;;;;;6.90;99.90;;;;;;1840093;78;20119;-75
2022/11/30 05:28:54;;;;;;;;;;;6.90;99.90;;;;;;1833968;77;20127;-73
2022/11/30 05:31:21;;;;;;;;;;;6.90;99.90;;;;;;1837685;77;20130;-75
2022/11/30 05:33:51;;;;;;;;;;;6.80;99.90;;;;;;1845305;77;20122;-75
2022/11/30 05:36:18;;;;;;;;;;;6.80;99.90;;;;;;1840051;78;20338;-75
2022/11/30 05:38:44;;;;;;;;;;;6.80;99.90;;;;;;1836044;77;20346;-75
2022/11/30 05:41:11;;;;;;;;;;;6.80;99.90;;;;;;1804053;77;20184;-75
2022/11/30 05:43:38;;;;;;;;;;;6.90;99.90;;;;;;1846417;77;20342;-75
2022/11/30 05:46:05;;;;;;;;;;;6.90;99.90;;;;;;1838031;77;20115;-75
2022/11/30 05:48:32;;;;;;;;;;;6.80;99.90;;;;;;1834275;77;20200;-76
2022/11/30 05:51:15;;;;;;;;;;;6.90;99.90;;;;;;1832540;77;20118;-75
2022/11/30 05:53:42;;;;;;;;;;;6.90;99.90;;;;;;1852811;77;20314;-75
2022/11/30 05:56:10;;;;;;;;;;;6.90;99.90;;;;;;1833914;78;20363;-74
2022/11/30 05:58:36;;;;;;;;;;;6.80;99.90;;;;;;1836449;77;20369;-75
2022/11/30 06:01:03;;;;;;;;;;;6.70;99.90;;;;;;1846567;77;20134;-75
2022/11/30 06:03:30;;;;;;;;;;;6.90;99.90;;;;;;1834039;77;20156;-75
2022/11/30 06:05:57;;;;;;;;;;;6.90;99.90;;;;;;1843095;77;20146;-75
2022/11/30 06:08:24;;;;;;;;;;;6.90;99.90;;;;;;1840009;77;20165;-75
2022/11/30 06:10:51;;;;;;;;;;;6.90;99.90;;;;;;1838752;77;20119;-74
2022/11/30 06:13:17;;;;;;;;;;;6.90;99.90;;;;;;1839397;77;20154;-75
2022/11/30 06:15:44;;;;;;;;;;;6.90;99.90;;;;;;1838498;77;20128;-74
2022/11/30 06:18:11;;;;;;;;;;;6.80;99.90;;;;;;1831187;77;20330;-75
2022/11/30 06:20:38;;;;;;;;;;;6.80;99.90;;;;;;1829560;77;20373;-75
2022/11/30 06:23:04;;;;;;;;;;;6.70;99.90;;;;;;1829663;78;20175;-75
2022/11/30 06:25:31;;;;;;;;;;;6.70;99.90;;;;;;1831957;77;20122;-75
2022/11/30 06:27:58;;;;;;;;;;;6.60;99.90;;;;;;1840049;77;20130;-76
2022/11/30 06:30:25;;;;;;;;;;;6.60;99.90;;;;;;1850813;77;20123;-76
2022/11/30 06:32:51;;;;;;;;;;;6.50;99.90;;;;;;1836949;77;20198;-74
2022/11/30 06:35:19;;;;;;;;;;;6.40;99.90;;;;;;1852017;77;20131;-76
2022/11/30 06:37:45;;;;;;;;;;;6.40;99.90;;;;;;1840401;77;20157;-77
2022/11/30 06:40:12;;;;;;;;;;;6.50;99.90;;;;;;1829750;77;20161;-76
2022/11/30 06:42:39;;;;;;;;;;;6.50;99.90;;;;;;1852003;77;20186;-76
2022/11/30 06:45:06;;;;;;;;;;;6.40;99.90;;;;;;1835411;77;20314;-81
2022/11/30 06:47:33;;;;;;;;;;;6.40;99.90;;;;;;1832862;77;20275;-78
2022/11/30 06:49:59;;;;;;;;;;;6.40;99.90;;;;;;1840098;77;20155;-77
2022/11/30 06:52:26;;;;;;;;;;;6.30;99.90;;;;;;1846536;77;20126;-79
2022/11/30 06:54:53;;;;;;;;;;;6.40;99.90;;;;;;1838132;77;20177;-79
2022/11/30 06:57:20;;;;;;;;;;;6.30;99.90;;;;;;1831363;77;20156;-79
2022/11/30 06:59:46;;;;;;;;;;;6.20;99.90;;;;;;1834844;77;20122;-79
2022/11/30 07:02:14;;;;;;;;;;;6.10;99.90;;;;;;1838335;77;20170;-78
2022/11/30 07:04:40;;;;;;;;;;;6.20;99.90;;;;;;1837878;77;20255;-79
2022/11/30 07:07:07;;;;;;;;;;;6.30;99.90;;;;;;1848965;77;20156;-80
2022/11/30 07:09:34;;;;;;;;;;;6.30;99.90;;;;;;1835778;77;20111;-80
2022/11/30 07:12:01;;;;;;;;;;;6.30;99.90;;;;;;1858238;77;20345;-80
2022/11/30 07:14:29;;;;;;;;;;;6.30;99.90;;;;;;1838393;77;20135;-80
2022/11/30 07:16:56;;;;;;;;;;;6.30;99.90;;;;;;1846383;77;20356;-80
2022/11/30 07:19:22;;;;;;;;;;;6.30;99.90;;;;;;1838755;77;20189;-79
2022/11/30 07:21:49;;;;;;;;;;;6.40;99.90;;;;;;1842318;77;20125;-79
2022/11/30 07:27:01;;;;;;;;;;;6.40;99.90;;;;;;1839898;78;20179;-80
2022/11/30 07:29:28;;;;;;;;;;;6.20;99.90;;;;;;1840013;77;20146;-80
2022/11/30 07:31:55;;;;;;;;;;;6.20;99.90;;;;;;1837964;76;20135;-79
2022/11/30 07:34:22;;;;;;;;;;;6.30;99.90;;;;;;1837872;77;20153;-81
2022/11/30 07:36:48;;;;;;;;;;;6.10;99.90;;;;;;1838226;77;20161;-81
2022/11/30 07:39:15;;;;;;;;;;;6.10;99.90;;;;;;1833072;77;20137;-81
2022/11/30 07:41:42;;;;;;;;;;;6.20;99.90;;;;;;1835271;77;20126;-81
2022/11/30 07:44:08;;;;;;;;;;;6.20;99.90;;;;;;1837100;77;20208;-80
2022/11/30 07:46:35;;;;;;;;;;;6.10;99.90;;;;;;1835982;77;20127;-81
2022/11/30 07:49:02;;;;;;;;;;;6.20;99.90;;;;;;1840221;77;20123;-80
2022/11/30 07:51:29;;;;;;;;;;;6.20;99.90;;;;;;1835161;77;20260;-81
2022/11/30 07:53:56;;;;;;;;;;;6.10;99.90;;;;;;1839887;77;20112;-80
2022/11/30 07:56:23;;;;;;;;;;;6.20;99.90;;;;;;1848065;77;20114;-79
2022/11/30 07:58:52;;;;;;;;;;;6.20;99.90;;;;;;1838044;77;20107;-79
2022/11/30 08:01:24;;;;;;;;;;;6.30;99.90;;;;;;1834358;77;20118;-77
2022/11/30 08:03:48;;;;;;;;;;;6.30;99.90;;;;;;1838123;77;20330;-80
2022/11/30 08:06:21;;;;;;;;;;;6.30;99.90;;;;;;1839200;77;20338;-80
2022/11/30 08:08:49;;;;;;;;;;;6.40;99.90;;;;;;1837311;77;20338;-80
2022/11/30 08:11:16;;;;;;;;;;;6.40;99.90;;;;;;1850285;77;20376;-79
2022/11/30 08:13:43;;;;;;;;;;;6.40;99.90;;;;;;1833429;77;20404;-79
2022/11/30 08:16:11;;;;;;;;;;;6.40;99.90;;;;;;1837401;77;20118;-80
2022/11/30 08:18:38;;;;;;;;;;;6.60;99.90;;;;;;1838260;77;20259;-79
2022/11/30 08:21:05;;;;;;;;;;;6.60;99.90;;;;;;1835318;77;20126;-79
2022/11/30 08:23:33;;;;;;;;;;;6.40;99.90;;;;;;1835058;77;20174;-79
2022/11/30 08:26:05;;;;;;;;;;;6.40;99.90;;;;;;1834773;77;20124;-78
2022/11/30 08:28:34;;;;;;;;;;;6.60;99.90;;;;;;1839175;78;20119;-79
2022/11/30 08:31:02;;;;;;;;;;;6.80;99.90;;;;;;1831019;77;20148;-79
2022/11/30 08:33:30;;;;;;;;;;;6.60;99.90;;;;;;1833721;77;20106;-80
2022/11/30 08:36:06;;;;;;;;;;;6.60;99.90;;;;;;1834861;78;20219;-73
2022/11/30 08:38:33;;;;;;;;;;;6.50;99.90;;;;;;1839805;78;20174;-77
2022/11/30 08:41:00;;;;;;;;;;;6.70;99.90;;;;;;1838500;77;20137;-79
2022/11/30 08:43:27;;;;;;;;;;;6.80;99.90;;;;;;1838081;77;20123;-79
2022/11/30 08:45:54;;;;;;;;;;;6.80;99.90;;;;;;1838649;77;20202;-78
2022/11/30 08:48:20;;;;;;;;;;;6.90;99.90;;;;;;1839856;78;20118;-78
2022/11/30 08:50:47;;;;;;;;;;;6.90;99.90;;;;;;1838093;77;20153;-78
2022/11/30 08:53:15;;;;;;;;;;;7.00;99.90;;;;;;1834198;77;20172;-79
2022/11/30 08:55:42;;;;;;;;;;;6.80;99.90;;;;;;1839642;77;20103;-79
2022/11/30 08:58:09;;;;;;;;;;;6.60;99.90;;;;;;1841011;77;20709;-79
2022/11/30 09:00:35;;;;;;;;;;;6.60;99.90;;;;;;1835716;77;20111;-78
2022/11/30 09:03:02;;;;;;;;;;;6.70;99.90;;;;;;1835802;77;20324;-80
2022/11/30 09:05:30;;;;;;;;;;;6.70;99.90;;;;;;1839729;78;20122;-80
2022/11/30 09:07:57;;;;;;;;;;;6.60;99.90;;;;;;1834141;77;20132;-79
2022/11/30 09:10:24;;;;;;;;;;;6.50;99.90;;;;;;1839924;78;20412;-80
2022/11/30 09:12:51;;;;;;;;;;;6.60;99.90;;;;;;1838226;77;20125;-79
2022/11/30 09:15:18;;;;;;;;;;;6.70;99.90;;;;;;1833251;77;20137;-81
2022/11/30 09:17:45;;;;;;;;;;;6.70;99.90;;;;;;1839365;77;20165;-79
2022/11/30 09:20:12;;;;;;;;;;;6.80;99.90;;;;;;1838417;77;20334;-79
2022/11/30 09:22:39;;;;;;;;;;;6.70;99.90;;;;;;1835115;77;20125;-79
2022/11/30 09:25:06;;;;;;;;;;;6.60;99.90;;;;;;1837446;77;20177;-79
2022/11/30 09:27:33;;;;;;;;;;;6.70;99.90;;;;;;1837680;77;20325;-80
2022/11/30 09:29:59;;;;;;;;;;;6.70;99.90;;;;;;1831627;78;20162;-80
2022/11/30 09:32:27;;;;;;;;;;;6.80;99.90;;;;;;1840725;77;20350;-79
2022/11/30 09:34:53;;;;;;;;;;;6.80;99.90;;;;;;1798497;79;20415;-80
2022/11/30 09:37:21;;;;;;;;;;;6.90;99.90;;;;;;1849066;77;20118;-80
2022/11/30 09:39:48;;;;;;;;;;;6.90;99.90;;;;;;1836059;77;20119;-79
2022/11/30 09:42:19;;;;;;;;;;;6.90;99.90;;;;;;1840113;78;20154;-80
2022/11/30 09:44:49;;;;;;;;;;;7.00;99.90;;;;;;1836454;77;20399;-80
2022/11/30 09:47:35;;;;;;;;;;;7.10;99.90;;;;;;1837709;77;20131;-80
2022/11/30 09:50:07;;;;;;;;;;;7.20;99.90;;;;;;1856037;77;20131;-80
2022/11/30 09:52:35;;;;;;;;;;;7.30;99.90;;;;;;1829147;77;20180;-82
2022/11/30 09:55:05;;;;;;;;;;;7.10;99.90;;;;;;1836537;77;20137;-82
2022/11/30 09:57:51;;;;;;;;;;;7.20;99.90;;;;;;1835891;77;20391;-80
2022/11/30 10:00:20;;;;;;;;;;;7.40;99.90;;;;;;1830406;77;20149;-80
2022/11/30 10:02:50;;;;;;;;;;;7.30;99.90;;;;;;1835276;77;20127;-81
2022/11/30 10:05:35;;;;;;;;;;;7.40;99.90;;;;;;1840305;78;20119;-80
2022/11/30 10:08:07;;;;;;;;;;;7.40;99.90;;;;;;1833059;77;20115;-80
2022/11/30 10:10:35;;;;;;;;;;;7.50;99.90;;;;;;1844974;77;20408;-81
2022/11/30 10:13:06;;;;;;;;;;;7.40;99.90;;;;;;1820976;77;20199;-81
2022/11/30 10:15:35;;;;;;;;;;;7.30;99.90;;;;;;1838546;77;20157;-80
2022/11/30 10:18:09;;;;;;;;;;;7.50;99.90;;;;;;1838033;77;20192;-79
2022/11/30 10:20:40;;;;;;;;;;;7.60;99.90;;;;;;1834057;77;20123;-81
2022/11/30 10:23:09;;;;;;;;;;;7.60;99.90;;;;;;1829886;77;20106;-81
2022/11/30 10:25:37;;;;;;;;;;;7.70;99.90;;;;;;1835769;77;20226;-81
2022/11/30 10:28:06;;;;;;;;;;;7.90;99.90;;;;;;1831103;77;20405;-81
2022/11/30 10:30:35;;;;;;;;;;;8.20;99.90;;;;;;1835796;77;20184;-81
2022/11/30 10:33:17;;;;;;;;;;;8.30;99.90;;;;;;1838948;78;20119;-83
2022/11/30 10:35:45;;;;;;;;;;;8.00;99.90;;;;;;1838752;77;20181;-81
2022/11/30 10:38:15;;;;;;;;;;;7.90;99.90;;;;;;1839866;77;20111;-81
2022/11/30 10:40:47;;;;;;;;;;;7.80;99.90;;;;;;1838172;77;20132;-81
2022/11/30 10:43:15;;;;;;;;;;;7.60;99.90;;;;;;1838644;77;20409;-81
2022/11/30 10:45:44;;;;;;;;;;;7.70;99.90;;;;;;1835770;77;20165;-81
2022/11/30 10:48:15;;;;;;;;;;;7.80;99.90;;;;;;1842753;77;20130;-81
2022/11/30 10:50:41;;;;;;;;;;;7.90;99.90;;;;;;1840859;77;20157;-82
2022/11/30 10:53:09;;;;;;;;;;;7.70;99.90;;;;;;1842704;77;20129;-79
2022/11/30 10:55:38;;;;;;;;;;;7.70;99.90;;;;;;1840388;78;20127;-83
2022/11/30 10:58:06;;;;;;;;;;;7.50;99.90;;;;;;1857447;77;20155;-80
2022/11/30 11:00:33;;;;;;;;;;;7.40;99.90;;;;;;1864811;77;20128;-81
2022/11/30 11:02:59;;;;;;;;;;;7.30;99.90;;;;;;1864877;77;20166;-80
2022/11/30 11:05:27;;;;;;;;;;;7.40;99.90;;;;;;1864451;77;20127;-82
2022/11/30 11:08:00;;;;;;;;;;;7.50;99.90;;;;;;1866821;76;20159;-82
2022/11/30 11:10:36;;;;;;;;;;;7.40;99.90;;;;;;1863608;77;20143;-80
2022/11/30 11:13:04;;;;;;;;;;;7.40;99.90;;;;;;1865935;77;20115;-80
2022/11/30 11:15:31;;;;;;;;;;;7.50;99.90;;;;;;1864339;76;20127;-81
2022/11/30 11:18:15;;;;;;;;;;;7.60;99.90;;;;;;1864667;77;20244;-81
2022/11/30 11:20:42;;;;;;;;;;;7.70;99.90;;;;;;1833317;76;20135;-83
2022/11/30 11:23:10;;;;;;;;;;;7.60;99.90;;;;;;1862577;77;20142;-82
2022/11/30 11:25:41;;;;;;;;;;;7.50;99.90;;;;;;1873231;77;20357;-82
2022/11/30 11:28:13;;;;;;;;;;;7.70;99.90;;;;;;1866489;76;20112;-82
2022/11/30 11:30:40;;;;;;;;;;;7.70;99.90;;;;;;1865325;77;20365;-82
2022/11/30 11:33:14;;;;;;;;;;;7.80;99.90;;;;;;1864543;77;20116;-82
2022/11/30 11:35:42;;;;;;;;;;;8.00;99.90;;;;;;1864417;77;20191;-82
2022/11/30 11:38:19;;;;;;;;;;;8.10;99.90;;;;;;1863950;77;20116;-82
2022/11/30 11:40:53;;;;;;;;;;;8.00;99.90;;;;;;1859107;77;20327;-82
2022/11/30 11:43:20;;;;;;;;;;;8.10;99.90;;;;;;1864834;77;20167;-81
2022/11/30 11:45:48;;;;;;;;;;;8.10;99.90;;;;;;1866787;77;20112;-82
2022/11/30 11:48:25;;;;;;;;;;;8.10;99.90;;;;;;1864642;77;20229;-82
2022/11/30 11:51:02;;;;;;;;;;;8.20;99.90;;;;;;1865366;77;20173;-81
2022/11/30 11:53:48;;;;;;;;;;;7.90;99.90;;;;;;1863611;77;20162;-81
2022/11/30 11:56:28;;;;;;;;;;;8.10;99.90;;;;;;1866529;77;20303;-82
2022/11/30 11:58:56;;;;;;;;;;;8.10;99.90;;;;;;1866215;77;20217;-81
2022/11/30 12:01:25;;;;;;;;;;;8.20;99.90;;;;;;1864094;76;20128;-81
2022/11/30 12:03:59;;;;;;;;;;;8.20;99.90;;;;;;1863560;77;20150;-81
2022/11/30 12:06:25;;;;;;;;;;;8.20;99.90;;;;;;1862393;77;20131;-82
2022/11/30 12:08:53;;;;;;;;;;;8.30;99.90;;;;;;1865923;77;20127;-82
2022/11/30 12:11:21;;;;;;;;;;;8.00;99.90;;;;;;1864604;77;20204;-81
2022/11/30 12:13:49;;;;;;;;;;;7.90;99.90;;;;;;1860938;76;20339;-81
2022/11/30 12:16:20;;;;;;;;;;;8.00;99.90;;;;;;1865257;77;20377;-81
2022/11/30 12:19:05;;;;;;;;;;;8.00;99.90;;;;;;1865340;76;20326;-80
2022/11/30 12:21:42;;;;;;;;;;;8.00;99.90;;;;;;1866219;77;20146;-80
2022/11/30 12:24:27;;;;;;;;;;;7.80;99.90;;;;;;1864728;77;20367;-82
2022/11/30 12:26:55;;;;;;;;;;;7.90;99.90;;;;;;1862637;77;20340;-81
2022/11/30 12:29:23;;;;;;;;;;;7.80;99.90;;;;;;1863364;77;20106;-81
2022/11/30 12:32:06;;;;;;;;;;;7.80;99.90;;;;;;1865239;77;20365;-81
2022/11/30 12:34:51;;;;;;;;;;;7.90;99.90;;;;;;1865821;77;20148;-80
2022/11/30 12:37:20;;;;;;;;;;;7.80;99.90;;;;;;1863952;76;20108;-80
2022/11/30 12:39:57;;;;;;;;;;;8.00;99.90;;;;;;1869085;77;20119;-82
2022/11/30 12:42:25;;;;;;;;;;;8.00;99.90;;;;;;1864488;77;20154;-81
2022/11/30 12:44:56;;;;;;;;;;;8.10;99.90;;;;;;1863249;77;20127;-80
2022/11/30 12:47:25;;;;;;;;;;;8.00;99.90;;;;;;1865712;77;20119;-80
2022/11/30 12:49:57;;;;;;;;;;;7.90;99.90;;;;;;1863419;77;20120;-81
2022/11/30 12:52:31;;;;;;;;;;;8.00;99.90;;;;;;1866318;77;20332;-80
2022/11/30 12:55:08;;;;;;;;;;;8.00;99.90;;;;;;1864457;76;20249;-80
2022/11/30 12:57:36;;;;;;;;;;;7.90;99.90;;;;;;1863204;77;20167;-81
2022/11/30 13:00:11;;;;;;;;;;;8.00;99.90;;;;;;1863301;77;20343;-81
2022/11/30 13:02:52;;;;;;;;;;;7.90;99.90;;;;;;1862561;77;20158;-80
2022/11/30 13:05:21;;;;;;;;;;;8.00;99.90;;;;;;1863423;77;20123;-81
2022/11/30 13:07:57;;;;;;;;;;;8.00;99.90;;;;;;1863245;77;20167;-81
2022/11/30 13:10:26;;;;;;;;;;;7.90;99.90;;;;;;1864634;77;20230;-80
2022/11/30 13:12:53;;;;;;;;;;;7.80;99.90;;;;;;1865158;77;20139;-81
2022/11/30 13:15:23;;;;;;;;;;;7.80;99.90;;;;;;1864545;77;20189;-81
2022/11/30 13:17:50;;;;;;;;;;;7.70;99.90;;;;;;1864960;77;20208;-81
2022/11/30 13:20:35;;;;;;;;;;;7.70;99.90;;;;;;1840222;77;20158;-81
2022/11/30 13:23:03;;;;;;;;;;;7.70;99.90;;;;;;1864765;77;20344;-81
2022/11/30 13:25:32;;;;;;;;;;;7.80;99.90;;;;;;1863643;77;20105;-81
2022/11/30 13:28:03;;;;;;;;;;;7.80;99.90;;;;;;1863444;77;20108;-81
2022/11/30 13:30:43;;;;;;;;;;;7.60;99.90;;;;;;1864999;77;20154;-81
2022/11/30 13:33:28;;;;;;;;;;;7.70;99.90;;;;;;1864997;77;20143;-80
2022/11/30 13:35:55;;;;;;;;;;;7.50;99.90;;;;;;1865010;77;20148;-81
2022/11/30 13:38:22;;;;;;;;;;;7.60;99.90;;;;;;1865027;76;20115;-81
2022/11/30 13:40:56;;;;;;;;;;;7.60;99.90;;;;;;1864533;77;20249;-81
2022/11/30 13:43:23;;;;;;;;;;;7.60;99.90;;;;;;1864737;77;20123;-83
2022/11/30 13:45:51;;;;;;;;;;;7.50;99.90;;;;;;1866885;77;20184;-81
2022/11/30 13:48:20;;;;;;;;;;;7.40;99.90;;;;;;1864601;77;20116;-81
2022/11/30 13:50:47;;;;;;;;;;;7.40;99.90;;;;;;1860326;77;20165;-80
2022/11/30 13:53:19;;;;;;;;;;;7.50;99.90;;;;;;1865995;77;20185;-79
2022/11/30 13:55:47;;;;;;;;;;;7.50;99.90;;;;;;1863614;77;20104;-81
2022/11/30 13:58:14;;;;;;;;;;;7.50;99.90;;;;;;1864714;77;20173;-81
2022/11/30 14:00:42;;;;;;;;;;;7.50;99.90;;;;;;1865605;77;20146;-80
2022/11/30 14:03:24;;;;;;;;;;;7.50;99.90;;;;;;1863610;76;20121;-82
2022/11/30 14:06:09;;;;;;;;;;;7.50;99.90;;;;;;1865257;77;20381;-82
2022/11/30 14:08:36;;;;;;;;;;;7.40;99.90;;;;;;1863812;77;20177;-82
2022/11/30 14:11:20;;;;;;;;;;;7.40;99.90;;;;;;1865146;77;20119;-81
2022/11/30 14:13:46;;;;;;;;;;;7.50;99.90;;;;;;1865423;76;20205;-82
2022/11/30 14:16:24;;;;;;;;;;;7.40;99.90;;;;;;1863326;77;20178;-81
2022/11/30 14:18:50;;;;;;;;;;;7.30;99.90;;;;;;1864103;77;20201;-80
2022/11/30 14:21:25;;;;;;;;;;;7.20;99.90;;;;;;1863748;77;20123;-81
2022/11/30 14:23:54;;;;;;;;;;;7.30;99.90;;;;;;1864758;77;20120;-81
2022/11/30 14:26:22;;;;;;;;;;;7.30;99.90;;;;;;1857797;77;20109;-82
2022/11/30 14:28:51;;;;;;;;;;;7.40;99.90;;;;;;1864670;77;20366;-82
2022/11/30 14:31:21;;;;;;;;;;;7.20;99.90;;;;;;1863249;77;20123;-81
2022/11/30 14:33:52;;;;;;;;;;;7.40;99.90;;;;;;1865644;77;20166;-81
2022/11/30 14:36:19;;;;;;;;;;;7.30;99.90;;;;;;1865202;76;20116;-81
2022/11/30 14:38:46;;;;;;;;;;;7.40;99.90;;;;;;1867661;77;20351;-81
2022/11/30 14:41:22;;;;;;;;;;;7.40;99.90;;;;;;1865558;77;20204;-81
2022/11/30 14:44:02;;;;;;;;;;;7.40;99.90;;;;;;1864332;77;20155;-82